Westcliff-on-Sea, United Kingdom
Current Conditions -  °F | °C
As of 8:50 AM on Friday 28 Nov 2014 (Local Time) from EGMC Reporting Station
Broken Clouds Broken Clouds  
Wind Chill: 52°   Ceiling: 800
Heat Index: 52°   Visibility: 4mi
Dew Point: 48°   Wind: 13mph
Humidity: 88%   Direction: 90°E
Pressure: 29.62"   Gusts: NA
Location:  51.55°N, 0.68°E
Report Text: EGMC 280850Z 09011KT 7000 BKN008 11/09 Q1003
Loading
Personal Weather Stations






























Interactive Weather Map New forecast layout! Learn more

10-Day Weather Forecast

Advertisements
Track Severe Weather on mobile